createdAt,value
2023-03-29T00:00:25.344Z,23.21
2023-03-29T00:01:35.652Z,23.22
2023-03-29T00:02:26.549Z,23.21
2023-03-29T00:03:25.397Z,23.21
2023-03-29T00:04:25.306Z,23.20
2023-03-29T00:05:25.307Z,23.20
2023-03-29T00:06:25.281Z,23.21
2023-03-29T00:07:25.268Z,23.20
2023-03-29T00:08:25.257Z,23.20
2023-03-29T00:09:25.276Z,23.20
2023-03-29T00:10:25.282Z,23.20
2023-03-29T00:11:25.325Z,23.20
2023-03-29T00:12:25.384Z,23.21
2023-03-29T00:13:25.440Z,23.21
2023-03-29T00:14:25.503Z,23.21
2023-03-29T00:15:25.564Z,23.21
2023-03-29T00:16:25.676Z,23.22
2023-03-29T00:17:25.723Z,23.22
2023-03-29T00:18:25.730Z,23.22
2023-03-29T00:19:25.794Z,23.22
2023-03-29T00:20:25.852Z,23.22
2023-03-29T00:21:25.903Z,23.21
2023-03-29T00:22:25.970Z,23.20
2023-03-29T00:23:26.010Z,23.21
2023-03-29T00:24:26.118Z,23.20
2023-03-29T00:25:26.916Z,23.20
2023-03-29T00:26:26.200Z,23.20
2023-03-29T00:27:26.253Z,23.19
2023-03-29T00:28:26.311Z,23.20
2023-03-29T00:29:26.354Z,23.19
2023-03-29T00:30:26.405Z,23.18
2023-03-29T00:31:26.527Z,23.18
2023-03-29T00:32:26.951Z,23.17
2023-03-29T00:33:26.539Z,23.18
2023-03-29T00:34:26.592Z,23.18
2023-03-29T00:35:26.683Z,23.18
2023-03-29T00:36:26.686Z,23.18
2023-03-29T00:37:26.824Z,23.18
2023-03-29T00:38:26.820Z,23.17
2023-03-29T00:39:26.876Z,23.17
2023-03-29T00:40:26.935Z,23.17
2023-03-29T00:41:26.998Z,23.17
2023-03-29T00:42:27.063Z,23.17
2023-03-29T00:43:27.145Z,23.18
2023-03-29T00:44:27.176Z,23.18
2023-03-29T00:45:27.240Z,23.18
2023-03-29T00:46:27.333Z,23.18
2023-03-29T00:47:27.410Z,23.17
2023-03-29T00:48:27.434Z,23.17
2023-03-29T00:49:27.494Z,23.17
2023-03-29T00:50:27.551Z,23.17
2023-03-29T00:51:27.612Z,23.17
2023-03-29T00:52:27.673Z,23.17
2023-03-29T00:53:27.723Z,23.17
2023-03-29T00:54:27.777Z,23.18
2023-03-29T00:55:27.854Z,23.17
2023-03-29T00:56:27.905Z,23.16
2023-03-29T00:57:28.032Z,23.17
2023-03-29T00:58:28.062Z,23.16
2023-03-29T00:59:28.088Z,23.16
2023-03-29T01:00:28.157Z,23.17
2023-03-29T01:01:28.348Z,23.16
2023-03-29T01:02:28.311Z,23.16
2023-03-29T01:03:28.954Z,23.16
2023-03-29T01:04:28.478Z,23.15
2023-03-29T01:05:28.456Z,23.16
2023-03-29T01:06:28.526Z,23.15
2023-03-29T01:07:28.589Z,23.16
2023-03-29T01:08:28.642Z,23.15
2023-03-29T01:09:28.681Z,23.16
2023-03-29T01:10:28.755Z,23.15
2023-03-29T01:11:28.795Z,23.15
2023-03-29T01:12:28.815Z,23.14
2023-03-29T01:13:28.858Z,23.14
2023-03-29T01:14:28.904Z,23.14
2023-03-29T01:15:29.060Z,23.15
2023-03-29T01:16:29.068Z,23.14
2023-03-29T01:17:29.072Z,23.13
2023-03-29T01:18:29.140Z,23.14
2023-03-29T01:19:29.189Z,23.13
2023-03-29T01:20:29.243Z,23.13
2023-03-29T01:21:29.326Z,23.14
2023-03-29T01:22:29.359Z,23.13
2023-03-29T01:23:29.417Z,23.13
2023-03-29T01:24:29.485Z,23.13
2023-03-29T01:25:29.591Z,23.13
2023-03-29T01:26:29.594Z,23.13
2023-03-29T01:27:29.665Z,23.14
2023-03-29T01:28:29.730Z,23.14
2023-03-29T01:29:29.867Z,23.13
2023-03-29T01:30:29.853Z,23.13
2023-03-29T01:31:29.941Z,23.14
2023-03-29T01:32:30.006Z,23.13
2023-03-29T01:33:30.036Z,23.13
2023-03-29T01:34:30.088Z,23.13
2023-03-29T01:35:30.158Z,23.13
2023-03-29T01:36:30.277Z,23.13
2023-03-29T01:37:30.269Z,23.14
2023-03-29T01:38:30.336Z,23.13
2023-03-29T01:39:30.437Z,23.14
2023-03-29T01:40:30.472Z,23.13
2023-03-29T01:41:30.539Z,23.13
2023-03-29T01:42:30.573Z,23.13
2023-03-29T01:43:30.615Z,23.13
2023-03-29T01:44:30.696Z,23.14
2023-03-29T01:45:30.746Z,23.14
2023-03-29T01:46:30.846Z,23.14
2023-03-29T01:47:30.887Z,23.14
2023-03-29T01:48:30.929Z,23.13
2023-03-29T01:49:30.989Z,23.14
2023-03-29T01:50:31.062Z,23.14
2023-03-29T01:51:31.988Z,23.14
2023-03-29T01:52:31.164Z,23.13
2023-03-29T01:53:31.220Z,23.14
2023-03-29T01:54:31.286Z,23.14
2023-03-29T01:55:31.337Z,23.15
2023-03-29T01:56:31.386Z,23.15
2023-03-29T01:57:31.460Z,23.15
2023-03-29T01:58:31.505Z,23.15
2023-03-29T01:59:31.566Z,23.15
2023-03-29T02:00:31.631Z,23.16
2023-03-29T02:01:32.650Z,23.15
2023-03-29T02:02:31.880Z,23.16
2023-03-29T02:03:31.879Z,23.16
2023-03-29T02:04:31.869Z,23.16
2023-03-29T02:05:31.938Z,23.16
2023-03-29T02:06:31.995Z,23.16
2023-03-29T02:07:32.049Z,23.16
2023-03-29T02:08:32.124Z,23.17
2023-03-29T02:09:32.196Z,23.17
2023-03-29T02:10:32.228Z,23.17
2023-03-29T02:11:32.287Z,23.17
2023-03-29T02:12:32.356Z,23.18
2023-03-29T02:13:32.409Z,23.18
2023-03-29T02:14:32.460Z,23.18
2023-03-29T02:15:32.548Z,23.18
2023-03-29T02:16:32.578Z,23.18
2023-03-29T02:17:32.671Z,23.18
2023-03-29T02:18:32.699Z,23.18
2023-03-29T02:19:32.965Z,23.18
2023-03-29T02:20:32.814Z,23.18
2023-03-29T02:21:32.868Z,23.18
2023-03-29T02:22:32.932Z,23.18
2023-03-29T02:23:33.006Z,23.18
2023-03-29T02:24:33.096Z,23.18
2023-03-29T02:25:33.101Z,23.18
2023-03-29T02:26:33.157Z,23.18
2023-03-29T02:27:33.218Z,23.17
2023-03-29T02:28:33.299Z,23.17
2023-03-29T02:29:33.342Z,23.17
2023-03-29T02:30:33.408Z,23.16
2023-03-29T02:31:33.492Z,23.16
2023-03-29T02:32:33.557Z,23.16
2023-03-29T02:33:33.584Z,23.16
2023-03-29T02:34:33.639Z,23.17
2023-03-29T02:35:33.718Z,23.16
2023-03-29T02:36:33.768Z,23.16
2023-03-29T02:37:33.807Z,23.16
2023-03-29T02:38:33.888Z,23.16
2023-03-29T02:39:33.917Z,23.15
2023-03-29T02:40:34.000Z,23.15
2023-03-29T02:41:34.049Z,23.15
2023-03-29T02:42:34.094Z,23.16
2023-03-29T02:43:34.215Z,23.15
2023-03-29T02:44:34.225Z,23.16
2023-03-29T02:45:34.292Z,23.16
2023-03-29T02:46:34.524Z,23.16
2023-03-29T02:47:34.409Z,23.16
2023-03-29T02:48:34.473Z,23.16
2023-03-29T02:49:34.524Z,23.16
2023-03-29T02:50:34.581Z,23.17
2023-03-29T02:51:34.644Z,23.16
2023-03-29T02:52:35.463Z,23.17
2023-03-29T02:53:34.762Z,23.17
2023-03-29T02:54:34.820Z,23.17
2023-03-29T02:55:34.980Z,23.18
2023-03-29T02:56:34.932Z,23.17
2023-03-29T02:57:35.055Z,23.18
2023-03-29T02:58:35.060Z,23.18
2023-03-29T02:59:35.120Z,23.18
2023-03-29T03:00:35.170Z,23.19
2023-03-29T03:01:35.291Z,23.18
2023-03-29T03:02:35.384Z,23.19
2023-03-29T03:03:35.425Z,23.18
2023-03-29T03:04:35.367Z,23.19
2023-03-29T03:05:35.424Z,23.20
2023-03-29T03:06:35.470Z,23.21
2023-03-29T03:07:35.511Z,23.22
2023-03-29T03:08:35.560Z,23.22
2023-03-29T03:09:35.596Z,23.24
2023-03-29T03:10:35.656Z,23.25
2023-03-29T03:11:35.680Z,23.25
2023-03-29T03:12:35.719Z,23.26
2023-03-29T03:13:35.771Z,23.28
2023-03-29T03:14:35.812Z,23.28
2023-03-29T03:15:35.919Z,23.30
2023-03-29T03:16:35.911Z,23.31
2023-03-29T03:17:35.954Z,23.33
2023-03-29T03:18:35.939Z,23.34
2023-03-29T03:19:35.961Z,23.35
2023-03-29T03:20:36.981Z,23.35
2023-03-29T03:21:36.024Z,23.37
2023-03-29T03:22:36.059Z,23.38
2023-03-29T03:23:36.088Z,23.40
2023-03-29T03:24:36.111Z,23.42
2023-03-29T03:25:36.139Z,23.43
2023-03-29T03:26:36.157Z,23.43
2023-03-29T03:27:36.182Z,23.45
2023-03-29T03:28:36.210Z,23.45
2023-03-29T03:29:36.240Z,23.45
2023-03-29T03:30:36.984Z,23.46
2023-03-29T03:31:36.343Z,23.47
2023-03-29T03:32:36.364Z,23.49
2023-03-29T03:33:36.321Z,23.50
2023-03-29T03:34:36.342Z,23.50
2023-03-29T03:35:36.375Z,23.50
2023-03-29T03:36:36.500Z,23.52
2023-03-29T03:37:36.406Z,23.53
2023-03-29T03:38:36.427Z,23.53
2023-03-29T03:39:36.433Z,23.53
2023-03-29T03:40:36.441Z,23.54
2023-03-29T03:41:36.517Z,23.55
2023-03-29T03:42:36.464Z,23.56
2023-03-29T03:43:36.487Z,23.56
2023-03-29T03:44:36.487Z,23.57
2023-03-29T03:45:36.526Z,23.58
2023-03-29T03:46:36.505Z,23.59
2023-03-29T03:47:36.516Z,23.60
2023-03-29T03:48:36.525Z,23.61
2023-03-29T03:49:36.526Z,23.61
2023-03-29T03:50:36.536Z,23.62
2023-03-29T03:51:36.539Z,23.63
2023-03-29T03:52:36.540Z,23.63
2023-03-29T03:53:36.560Z,23.62
2023-03-29T03:54:36.559Z,23.63
2023-03-29T03:55:36.564Z,23.61
2023-03-29T03:56:36.561Z,23.62
2023-03-29T03:57:36.994Z,23.61
2023-03-29T03:58:36.574Z,23.61
2023-03-29T03:59:36.569Z,23.61
2023-03-29T04:00:36.580Z,23.61
2023-03-29T04:01:36.576Z,23.61
2023-03-29T04:02:36.727Z,23.62
2023-03-29T04:03:36.702Z,23.63
2023-03-29T04:04:36.652Z,23.63
2023-03-29T04:05:36.618Z,23.63
2023-03-29T04:06:36.629Z,23.63
2023-03-29T04:07:36.633Z,23.63
2023-03-29T04:08:36.649Z,23.64
2023-03-29T04:09:36.659Z,23.63
2023-03-29T04:10:36.661Z,23.63
2023-03-29T04:11:36.678Z,23.62
2023-03-29T04:12:36.684Z,23.62
2023-03-29T04:13:36.697Z,23.62
2023-03-29T04:14:36.707Z,23.62
2023-03-29T04:15:36.718Z,23.62
2023-03-29T04:16:36.722Z,23.62
2023-03-29T04:17:36.811Z,23.62
2023-03-29T04:18:36.822Z,23.62
2023-03-29T04:19:36.749Z,23.62
2023-03-29T04:20:36.761Z,23.62
2023-03-29T04:21:36.777Z,23.61
2023-03-29T04:22:36.780Z,23.61
2023-03-29T04:23:36.805Z,23.61
2023-03-29T04:24:36.805Z,23.61
2023-03-29T04:25:36.815Z,23.60
2023-03-29T04:26:36.848Z,23.61
2023-03-29T04:27:36.871Z,23.61
2023-03-29T04:28:36.898Z,23.61
2023-03-29T04:29:37.011Z,23.62
2023-03-29T04:30:36.902Z,23.62
2023-03-29T04:31:36.943Z,23.62
2023-03-29T04:32:36.949Z,23.62
2023-03-29T04:33:36.998Z,23.62
2023-03-29T04:34:36.954Z,23.62
2023-03-29T04:35:37.031Z,23.61
2023-03-29T04:36:36.984Z,23.61
2023-03-29T04:37:36.997Z,23.61
2023-03-29T04:38:37.010Z,23.61
2023-03-29T04:39:37.023Z,23.61
2023-03-29T04:40:37.042Z,23.60
2023-03-29T04:41:37.056Z,23.60
2023-03-29T04:42:37.075Z,23.59
2023-03-29T04:43:39.725Z,23.58
2023-03-29T04:44:37.125Z,23.58
2023-03-29T04:45:37.075Z,23.58
2023-03-29T04:46:37.159Z,23.58
2023-03-29T04:47:37.064Z,23.58
2023-03-29T04:48:37.065Z,23.57
2023-03-29T04:49:37.045Z,23.57
2023-03-29T04:50:37.042Z,23.57
2023-03-29T04:51:37.046Z,23.57
2023-03-29T04:52:37.032Z,23.57
2023-03-29T04:53:37.014Z,23.57
2023-03-29T04:54:37.009Z,23.56
2023-03-29T04:55:37.003Z,23.56
2023-03-29T04:56:36.993Z,23.56
2023-03-29T04:57:37.053Z,23.56
2023-03-29T04:58:36.984Z,23.56
2023-03-29T04:59:36.983Z,23.54
2023-03-29T05:00:36.974Z,23.54
2023-03-29T05:01:37.055Z,23.53
2023-03-29T05:02:37.001Z,23.53
2023-03-29T05:03:36.952Z,23.53
2023-03-29T05:04:36.985Z,23.52
2023-03-29T05:05:36.937Z,23.52
2023-03-29T05:06:37.011Z,23.51
2023-03-29T05:07:36.926Z,23.52
2023-03-29T05:08:36.917Z,23.52
2023-03-29T05:09:36.914Z,23.52
2023-03-29T05:10:36.905Z,23.52
2023-03-29T05:11:36.902Z,23.51
2023-03-29T05:12:36.943Z,23.51
2023-03-29T05:13:36.895Z,23.50
2023-03-29T05:14:36.877Z,23.50
2023-03-29T05:15:37.162Z,23.51
2023-03-29T05:16:36.893Z,23.52
2023-03-29T05:17:36.875Z,23.52
2023-03-29T05:18:36.850Z,23.53
2023-03-29T05:19:36.840Z,23.54
2023-03-29T05:20:36.837Z,23.53
2023-03-29T05:21:36.904Z,23.52
2023-03-29T05:22:36.811Z,23.52
2023-03-29T05:23:36.809Z,23.51
2023-03-29T05:24:36.809Z,23.51
2023-03-29T05:25:36.791Z,23.52
2023-03-29T05:26:36.795Z,23.52
2023-03-29T05:27:36.784Z,23.53
2023-03-29T05:28:36.769Z,23.54
2023-03-29T05:29:36.798Z,23.51
2023-03-29T05:30:36.764Z,23.46
2023-03-29T05:31:36.801Z,23.34
2023-03-29T05:32:36.881Z,23.22
2023-03-29T05:33:36.755Z,23.09
2023-03-29T05:34:36.735Z,23.04
2023-03-29T05:35:36.737Z,23.03
2023-03-29T05:36:36.716Z,23.04
2023-03-29T05:37:36.708Z,23.06
2023-03-29T05:38:36.735Z,23.11
2023-03-29T05:39:37.864Z,23.15
2023-03-29T05:40:36.692Z,23.21
2023-03-29T05:41:36.689Z,23.27
2023-03-29T05:42:36.734Z,23.34
2023-03-29T05:43:36.674Z,23.40
2023-03-29T05:44:36.680Z,23.46
2023-03-29T05:45:36.709Z,23.52
2023-03-29T05:46:36.708Z,23.58
2023-03-29T05:47:36.755Z,23.61
2023-03-29T05:48:36.719Z,23.66
2023-03-29T05:49:36.722Z,23.72
2023-03-29T05:50:36.755Z,23.79
2023-03-29T05:51:36.820Z,23.84
2023-03-29T05:52:36.862Z,23.90
2023-03-29T05:53:36.916Z,23.94
2023-03-29T05:54:36.979Z,23.95
2023-03-29T05:55:37.042Z,23.95
2023-03-29T05:56:37.065Z,23.85
2023-03-29T05:57:37.072Z,23.81
2023-03-29T05:58:37.073Z,23.80
2023-03-29T05:59:37.207Z,23.80
2023-03-29T06:00:37.079Z,23.82
2023-03-29T06:01:37.082Z,23.86
2023-03-29T06:02:37.180Z,23.90
2023-03-29T06:03:37.351Z,23.94
2023-03-29T06:04:37.391Z,23.98
2023-03-29T06:05:37.393Z,24.03
2023-03-29T06:06:38.041Z,24.06
2023-03-29T06:07:37.373Z,24.10
2023-03-29T06:08:37.403Z,24.15
2023-03-29T06:09:37.434Z,24.18
2023-03-29T06:10:37.471Z,24.23
2023-03-29T06:11:37.498Z,24.27
2023-03-29T06:12:37.645Z,24.30
2023-03-29T06:13:37.534Z,24.34
2023-03-29T06:14:38.054Z,24.38
2023-03-29T06:15:37.550Z,24.41
2023-03-29T06:16:37.694Z,24.44
2023-03-29T06:17:37.684Z,24.47
2023-03-29T06:18:37.584Z,24.50
2023-03-29T06:19:37.584Z,24.54
2023-03-29T06:20:37.588Z,24.58
2023-03-29T06:21:37.587Z,24.58
2023-03-29T06:22:37.590Z,24.59
2023-03-29T06:23:37.622Z,24.59
2023-03-29T06:24:37.611Z,24.60
2023-03-29T06:25:37.623Z,24.59
2023-03-29T06:26:37.646Z,24.56
2023-03-29T06:27:37.681Z,24.54
2023-03-29T06:28:37.699Z,24.52
2023-03-29T06:29:37.767Z,24.51
2023-03-29T06:30:37.773Z,24.50
2023-03-29T06:31:37.907Z,24.51
2023-03-29T06:32:37.889Z,24.52
2023-03-29T06:33:37.860Z,24.53
2023-03-29T06:34:38.666Z,24.55
2023-03-29T06:35:38.488Z,24.55
2023-03-29T06:36:38.891Z,24.56
2023-03-29T06:37:37.893Z,24.57
2023-03-29T06:38:39.907Z,24.58
2023-03-29T06:39:37.880Z,24.60
2023-03-29T06:40:37.900Z,24.61
2023-03-29T06:41:37.866Z,24.62
2023-03-29T06:42:37.866Z,24.64
2023-03-29T06:43:38.725Z,24.63
2023-03-29T06:44:37.838Z,24.64
2023-03-29T06:45:37.849Z,24.65
2023-03-29T06:46:37.883Z,24.65
2023-03-29T06:47:37.830Z,24.67
2023-03-29T06:48:37.817Z,24.67
2023-03-29T06:49:37.816Z,24.67
2023-03-29T06:50:37.806Z,24.69
2023-03-29T06:51:37.805Z,24.69
2023-03-29T06:52:37.794Z,24.69
2023-03-29T06:53:37.797Z,24.69
2023-03-29T06:54:38.564Z,24.69
2023-03-29T06:55:37.828Z,24.70
2023-03-29T06:56:37.897Z,24.71
2023-03-29T06:57:37.906Z,24.70
2023-03-29T06:58:37.879Z,24.70
2023-03-29T06:59:37.883Z,24.71
2023-03-29T07:00:37.972Z,24.71
2023-03-29T07:01:37.957Z,24.72
2023-03-29T07:02:37.945Z,24.72
2023-03-29T07:03:37.950Z,24.73
2023-03-29T07:04:38.022Z,24.71
2023-03-29T07:05:37.974Z,24.71
2023-03-29T07:06:37.995Z,24.72
2023-03-29T07:07:38.081Z,24.71
2023-03-29T07:08:38.022Z,24.71
2023-03-29T07:09:38.044Z,24.72
2023-03-29T07:10:38.060Z,24.74
2023-03-29T07:11:38.087Z,24.74
2023-03-29T07:12:38.103Z,24.75
2023-03-29T07:13:38.111Z,24.76
2023-03-29T07:14:38.139Z,24.77
2023-03-29T07:15:38.135Z,24.77
2023-03-29T07:16:38.278Z,24.78
2023-03-29T07:17:38.267Z,24.78
2023-03-29T07:18:38.455Z,24.78
2023-03-29T07:19:38.327Z,24.78
2023-03-29T07:20:38.281Z,24.77
2023-03-29T07:21:38.295Z,24.70
2023-03-29T07:22:38.328Z,24.65
2023-03-29T07:23:38.369Z,24.53
2023-03-29T07:24:38.396Z,24.38
2023-03-29T07:25:38.425Z,24.31
2023-03-29T07:26:39.307Z,24.27
2023-03-29T07:27:38.427Z,24.25
2023-03-29T07:28:38.441Z,24.22
2023-03-29T07:29:38.435Z,24.23
2023-03-29T07:30:38.454Z,24.24
2023-03-29T07:31:38.442Z,24.25
2023-03-29T07:32:38.658Z,24.26
2023-03-29T07:33:38.558Z,24.27
2023-03-29T07:34:38.560Z,24.27
2023-03-29T07:35:38.605Z,24.26
2023-03-29T07:36:38.647Z,24.27
2023-03-29T07:37:38.698Z,24.30
2023-03-29T07:38:38.751Z,24.34
2023-03-29T07:39:38.852Z,24.37
2023-03-29T07:40:38.849Z,24.38
2023-03-29T07:41:38.898Z,24.39
2023-03-29T07:42:38.950Z,24.38
2023-03-29T07:43:38.992Z,24.39
2023-03-29T07:44:39.049Z,24.39
2023-03-29T07:45:40.145Z,24.39
2023-03-29T07:46:39.164Z,24.40
2023-03-29T07:47:39.228Z,24.41
2023-03-29T07:48:39.218Z,24.42
2023-03-29T07:49:39.262Z,24.44
2023-03-29T07:50:40.083Z,24.45
2023-03-29T07:51:40.081Z,24.45
2023-03-29T07:52:39.369Z,24.46
2023-03-29T07:53:39.407Z,24.47
2023-03-29T07:54:39.446Z,24.47
2023-03-29T07:55:39.461Z,24.48
2023-03-29T07:56:39.548Z,24.49
2023-03-29T07:57:39.522Z,24.49
2023-03-29T07:58:39.550Z,24.49
2023-03-29T07:59:40.094Z,24.49
2023-03-29T08:00:39.716Z,24.51
2023-03-29T08:01:39.642Z,24.53
2023-03-29T08:02:39.744Z,24.55
2023-03-29T08:03:39.719Z,24.55
2023-03-29T08:04:39.778Z,24.56
2023-03-29T08:05:41.702Z,24.56
2023-03-29T08:06:39.793Z,24.56
2023-03-29T08:07:39.827Z,24.57
2023-03-29T08:08:39.844Z,24.57
2023-03-29T08:09:39.848Z,24.58
2023-03-29T08:10:39.870Z,24.59
2023-03-29T08:11:39.906Z,24.60
2023-03-29T08:12:40.101Z,24.60
2023-03-29T08:13:39.950Z,24.59
2023-03-29T08:14:39.996Z,24.54
2023-03-29T08:15:40.125Z,24.48
2023-03-29T08:16:40.126Z,24.34
2023-03-29T08:17:40.165Z,24.10
2023-03-29T08:18:40.180Z,23.95
2023-03-29T08:19:40.209Z,23.89
2023-03-29T08:20:41.207Z,23.81
2023-03-29T08:21:40.209Z,23.78
2023-03-29T08:22:40.206Z,23.77
2023-03-29T08:23:40.183Z,23.77
2023-03-29T08:24:40.177Z,23.78
2023-03-29T08:25:40.179Z,23.83
2023-03-29T08:26:40.160Z,23.87
2023-03-29T08:27:41.097Z,23.91
2023-03-29T08:28:40.156Z,23.95
2023-03-29T08:29:40.144Z,24.00
2023-03-29T08:30:40.202Z,24.05
2023-03-29T08:31:40.205Z,24.10
2023-03-29T08:32:40.173Z,24.14
2023-03-29T08:33:40.609Z,24.19
2023-03-29T08:34:40.211Z,24.25
2023-03-29T08:35:40.362Z,24.30
2023-03-29T08:36:40.316Z,24.36
2023-03-29T08:37:40.341Z,24.40
2023-03-29T08:38:40.357Z,24.45
2023-03-29T08:39:40.380Z,24.49
2023-03-29T08:40:40.407Z,24.53
2023-03-29T08:41:40.418Z,24.56
2023-03-29T08:42:40.475Z,24.59
2023-03-29T08:43:40.440Z,24.59
2023-03-29T08:44:40.436Z,24.61
2023-03-29T08:45:40.432Z,24.64
2023-03-29T08:46:40.698Z,24.67
2023-03-29T08:47:40.433Z,24.70
2023-03-29T08:48:40.408Z,24.72
2023-03-29T08:49:40.460Z,24.75
2023-03-29T08:50:40.426Z,24.76
2023-03-29T08:51:40.400Z,24.79
2023-03-29T08:52:40.384Z,24.83
2023-03-29T08:53:40.371Z,24.84
2023-03-29T08:54:40.378Z,24.87
2023-03-29T08:55:40.366Z,24.88
2023-03-29T08:56:41.146Z,24.91
2023-03-29T08:57:40.356Z,24.92
2023-03-29T08:58:40.359Z,24.95
2023-03-29T08:59:40.332Z,24.98
2023-03-29T09:00:40.330Z,25.02
2023-03-29T09:01:40.427Z,25.03
2023-03-29T09:02:40.373Z,25.06
2023-03-29T09:03:40.358Z,25.08
2023-03-29T09:04:40.360Z,25.10
2023-03-29T09:05:40.423Z,25.12
2023-03-29T09:06:40.501Z,25.13
2023-03-29T09:07:40.540Z,25.15
2023-03-29T09:08:40.612Z,25.17
2023-03-29T09:09:40.698Z,25.19
2023-03-29T09:10:40.715Z,25.20
2023-03-29T09:11:40.771Z,25.22
2023-03-29T09:12:40.820Z,25.22
2023-03-29T09:13:40.879Z,25.24
2023-03-29T09:14:41.615Z,25.26
2023-03-29T09:15:41.017Z,25.29
2023-03-29T09:16:41.130Z,25.32
2023-03-29T09:17:41.126Z,25.32
2023-03-29T09:18:41.118Z,25.33
2023-03-29T09:19:42.133Z,25.34
2023-03-29T09:20:41.212Z,25.35
2023-03-29T09:21:41.259Z,25.36
2023-03-29T09:22:41.309Z,25.36
2023-03-29T09:23:41.348Z,25.35
2023-03-29T09:24:41.410Z,25.34
2023-03-29T09:25:52.595Z,25.33
2023-03-29T09:26:42.467Z,25.31
2023-03-29T09:27:41.453Z,25.30
2023-03-29T09:28:41.466Z,25.29
2023-03-29T09:29:41.447Z,25.28
2023-03-29T09:30:41.481Z,25.27
2023-03-29T09:31:41.468Z,25.25
2023-03-29T09:32:41.490Z,25.24
2023-03-29T09:33:41.411Z,25.22
2023-03-29T09:34:41.444Z,25.20
2023-03-29T09:35:41.443Z,25.19
2023-03-29T09:36:41.402Z,25.17
2023-03-29T09:37:41.390Z,25.16
2023-03-29T09:38:41.387Z,25.14
2023-03-29T09:39:41.384Z,25.13
2023-03-29T09:40:41.377Z,25.11
2023-03-29T09:41:41.371Z,25.10
2023-03-29T09:42:41.382Z,25.08
2023-03-29T09:43:41.407Z,25.07
2023-03-29T09:44:41.418Z,25.05
2023-03-29T09:45:41.453Z,25.03
2023-03-29T09:46:42.414Z,25.01
2023-03-29T09:47:41.474Z,25.00
2023-03-29T09:48:41.383Z,24.99
2023-03-29T09:49:42.129Z,24.98
2023-03-29T09:50:42.127Z,24.96
2023-03-29T09:51:41.370Z,24.96
2023-03-29T09:52:41.358Z,24.95
2023-03-29T09:53:41.365Z,24.94
2023-03-29T09:54:41.352Z,24.93
2023-03-29T09:55:41.343Z,24.92
2023-03-29T09:56:41.370Z,24.91
2023-03-29T09:57:41.322Z,24.89
2023-03-29T09:58:41.325Z,24.88
2023-03-29T09:59:41.314Z,24.87
2023-03-29T10:00:41.310Z,24.87
2023-03-29T10:01:41.335Z,24.86
2023-03-29T10:02:41.334Z,24.84
2023-03-29T10:03:41.294Z,24.83
2023-03-29T10:04:41.419Z,24.82
2023-03-29T10:05:42.143Z,24.82
2023-03-29T10:06:41.351Z,24.80
2023-03-29T10:07:41.265Z,24.78
2023-03-29T10:08:41.263Z,24.78
2023-03-29T10:09:41.284Z,24.77
2023-03-29T10:10:41.248Z,24.76
2023-03-29T10:11:41.244Z,24.75
2023-03-29T10:12:41.248Z,24.74
2023-03-29T10:13:41.272Z,24.73
2023-03-29T10:14:41.303Z,24.72
2023-03-29T10:15:41.330Z,24.71
2023-03-29T10:16:41.397Z,24.70
2023-03-29T10:17:41.368Z,24.70
2023-03-29T10:18:41.419Z,24.70
2023-03-29T10:19:41.413Z,24.68
2023-03-29T10:20:41.445Z,24.68
2023-03-29T10:21:41.474Z,24.68
2023-03-29T10:22:41.506Z,24.68
2023-03-29T10:23:41.538Z,24.68
2023-03-29T10:24:41.560Z,24.67
2023-03-29T10:25:42.599Z,24.68
2023-03-29T10:26:41.602Z,24.67
2023-03-29T10:27:41.629Z,24.67
2023-03-29T10:28:41.649Z,24.67
2023-03-29T10:29:41.677Z,24.68
2023-03-29T10:30:41.720Z,24.68
2023-03-29T10:31:41.796Z,24.68
2023-03-29T10:32:41.888Z,24.71
2023-03-29T10:33:41.783Z,24.72
2023-03-29T10:34:41.797Z,24.72
2023-03-29T10:35:41.978Z,24.71
2023-03-29T10:36:41.839Z,24.72
2023-03-29T10:37:41.853Z,24.73
2023-03-29T10:38:41.886Z,24.74
2023-03-29T10:39:41.904Z,24.74
2023-03-29T10:40:41.924Z,24.74
2023-03-29T10:41:41.946Z,24.74
2023-03-29T10:42:41.978Z,24.73
2023-03-29T10:43:41.994Z,24.74
2023-03-29T10:44:42.020Z,24.73
2023-03-29T10:45:42.782Z,24.73
2023-03-29T10:46:42.147Z,24.72
2023-03-29T10:47:42.110Z,24.72
2023-03-29T10:48:42.121Z,24.72
2023-03-29T10:49:42.166Z,24.73
2023-03-29T10:50:42.189Z,24.73
2023-03-29T10:51:42.245Z,24.72
2023-03-29T10:52:42.263Z,24.72
2023-03-29T10:53:42.255Z,24.72
2023-03-29T10:54:42.343Z,24.72
2023-03-29T10:55:43.149Z,24.72
2023-03-29T10:56:42.412Z,24.70
2023-03-29T10:57:42.350Z,24.69
2023-03-29T10:58:42.386Z,24.68
2023-03-29T10:59:42.409Z,24.68
2023-03-29T11:00:42.680Z,24.67
2023-03-29T11:01:42.549Z,24.67
2023-03-29T11:02:42.574Z,24.66
2023-03-29T11:03:42.580Z,24.66
2023-03-29T11:04:42.550Z,24.66
2023-03-29T11:05:42.583Z,24.66
2023-03-29T11:06:42.611Z,24.66
2023-03-29T11:07:42.635Z,24.66
2023-03-29T11:08:42.669Z,24.65
2023-03-29T11:09:42.715Z,24.64
2023-03-29T11:10:42.738Z,24.65
2023-03-29T11:11:42.765Z,24.64
2023-03-29T11:12:42.784Z,24.64
2023-03-29T11:13:42.867Z,24.63
2023-03-29T11:14:42.853Z,24.63
2023-03-29T11:15:42.915Z,24.63
2023-03-29T11:16:42.909Z,24.62
2023-03-29T11:17:42.970Z,24.61
2023-03-29T11:18:42.990Z,24.61
2023-03-29T11:19:43.018Z,24.60
2023-03-29T11:20:43.060Z,24.60
2023-03-29T11:21:43.094Z,24.60
2023-03-29T11:22:43.732Z,24.60
2023-03-29T11:23:43.165Z,24.61
2023-03-29T11:24:43.195Z,24.61
2023-03-29T11:25:43.229Z,24.61
2023-03-29T11:26:43.262Z,24.61
2023-03-29T11:27:43.297Z,24.60
2023-03-29T11:28:43.324Z,24.60
2023-03-29T11:29:43.361Z,24.59
2023-03-29T11:30:43.405Z,24.59
2023-03-29T11:31:43.479Z,24.59
2023-03-29T11:32:43.516Z,24.59
2023-03-29T11:33:43.492Z,24.58
2023-03-29T11:34:43.531Z,24.57
2023-03-29T11:35:43.597Z,24.56
2023-03-29T11:36:43.605Z,24.55
2023-03-29T11:37:43.641Z,24.54
2023-03-29T11:38:45.224Z,24.52
2023-03-29T11:39:43.725Z,24.51
2023-03-29T11:40:43.780Z,24.50
2023-03-29T11:41:43.833Z,24.49
2023-03-29T11:42:43.874Z,24.48
2023-03-29T11:43:43.908Z,24.48
2023-03-29T11:44:43.959Z,24.47
2023-03-29T11:45:44.006Z,24.44
2023-03-29T11:46:44.086Z,24.44
2023-03-29T11:47:44.181Z,24.43
2023-03-29T11:48:44.139Z,24.42
2023-03-29T11:49:44.278Z,24.42
2023-03-29T11:50:44.271Z,24.41
2023-03-29T11:51:44.294Z,24.42
2023-03-29T11:52:44.342Z,24.40
2023-03-29T11:53:44.388Z,24.39
2023-03-29T11:54:44.444Z,24.38
2023-03-29T11:55:44.510Z,24.37
2023-03-29T11:56:44.588Z,24.37
2023-03-29T11:57:44.608Z,24.36
2023-03-29T11:58:44.668Z,24.35
2023-03-29T11:59:44.733Z,24.35
2023-03-29T12:00:44.800Z,24.34
2023-03-29T12:01:44.872Z,24.33
2023-03-29T12:02:45.031Z,24.33
2023-03-29T12:03:46.898Z,24.34
2023-03-29T12:04:45.050Z,24.33
2023-03-29T12:05:45.108Z,24.34
2023-03-29T12:06:45.144Z,24.34
2023-03-29T12:07:45.211Z,24.34
2023-03-29T12:08:45.254Z,24.34
2023-03-29T12:09:45.310Z,24.34
2023-03-29T12:10:45.373Z,24.34
2023-03-29T12:11:45.422Z,24.34
2023-03-29T12:12:45.495Z,24.34
2023-03-29T12:13:45.544Z,24.35
2023-03-29T12:14:45.594Z,24.34
2023-03-29T12:15:45.664Z,24.34
2023-03-29T12:16:45.801Z,24.35
2023-03-29T12:17:45.821Z,24.35
2023-03-29T12:18:46.702Z,24.35
2023-03-29T12:19:45.898Z,24.34
2023-03-29T12:20:45.968Z,24.34
2023-03-29T12:21:46.007Z,24.33
2023-03-29T12:22:46.068Z,24.34
2023-03-29T12:23:46.127Z,24.33
2023-03-29T12:24:46.194Z,24.34
2023-03-29T12:25:46.252Z,24.34
2023-03-29T12:26:46.292Z,24.35
2023-03-29T12:27:46.367Z,24.35
2023-03-29T12:28:46.425Z,24.35
2023-03-29T12:29:46.523Z,24.35
2023-03-29T12:30:46.542Z,24.34
2023-03-29T12:31:46.639Z,24.34
2023-03-29T12:32:46.782Z,24.34
2023-03-29T12:33:46.718Z,24.32
2023-03-29T12:34:46.783Z,24.32
2023-03-29T12:35:46.859Z,24.30
2023-03-29T12:36:46.897Z,24.29
2023-03-29T12:37:46.974Z,24.28
2023-03-29T12:38:46.962Z,24.27
2023-03-29T12:39:46.983Z,24.26
2023-03-29T12:40:47.083Z,24.26
2023-03-29T12:41:47.029Z,24.25
2023-03-29T12:42:47.037Z,24.24
2023-03-29T12:43:47.083Z,24.23
2023-03-29T12:44:47.123Z,24.23
2023-03-29T12:45:47.231Z,24.22
2023-03-29T12:46:47.268Z,24.22
2023-03-29T12:47:47.369Z,24.21
2023-03-29T12:48:47.313Z,24.22
2023-03-29T12:49:47.374Z,24.22
2023-03-29T12:50:47.411Z,24.21
2023-03-29T12:51:47.438Z,24.22
2023-03-29T12:52:47.464Z,24.21